Marco Island, Florida
Current Conditions -  °F | °C
As of 12:53 PM on Tuesday 21 Oct 2014 (Local Time) from KAPF Reporting Station
Scattered Clouds Scattered Clouds  
Wind Chill: 78°   Ceiling: Unl
Heat Index: 80°   Visibility: 10mi
Dew Point: 71°   Wind: 12mph
Humidity: 79%   Direction: 210°SSW
Pressure: 29.96"   Gusts: 22mph
Location:  25.97°N, 81.73°W
Report Text: KAPF 211653Z 21010G19KT 10SM SCT027 26/22 A2996 RMK AO2 SLP144 T02560217
Loading
Personal Weather Stations






























Interactive Weather Map New forecast layout! Learn more

10-Day Weather Forecast

Advertisements
Track Severe Weather on mobile